sensor_id;sensor_type;location;lat;lon;timestamp;P1;durP1;ratioP1;P2;durP2;ratioP2
12332;SDS011;6232;48.094;11.288;2024-01-06T00:02:29;5.50;;;4.50;;
12332;SDS011;6232;48.094;11.288;2024-01-06T00:05:15;7.63;;;4.83;;
12332;SDS011;6232;48.094;11.288;2024-01-06T00:08:00;5.23;;;4.43;;
12332;SDS011;6232;48.094;11.288;2024-01-06T00:10:46;6.37;;;4.57;;
12332;SDS011;6232;48.094;11.288;2024-01-06T00:13:31;6.17;;;4.77;;
12332;SDS011;6232;48.094;11.288;2024-01-06T00:16:17;4.97;;;4.47;;
12332;SDS011;6232;48.094;11.288;2024-01-06T00:19:05;5.40;;;4.90;;
12332;SDS011;6232;48.094;11.288;2024-01-06T00:21:51;7.33;;;5.40;;
12332;SDS011;6232;48.094;11.288;2024-01-06T00:24:36;5.77;;;5.23;;
12332;SDS011;6232;48.094;11.288;2024-01-06T00:27:22;6.10;;;4.33;;
12332;SDS011;6232;48.094;11.288;2024-01-06T00:30:07;10.87;;;5.60;;
12332;SDS011;6232;48.094;11.288;2024-01-06T00:32:53;7.50;;;4.83;;
12332;SDS011;6232;48.094;11.288;2024-01-06T00:35:39;4.87;;;4.20;;
12332;SDS011;6232;48.094;11.288;2024-01-06T00:38:25;7.50;;;5.70;;
12332;SDS011;6232;48.094;11.288;2024-01-06T00:41:10;6.57;;;5.30;;
12332;SDS011;6232;48.094;11.288;2024-01-06T00:43:56;6.47;;;4.77;;
12332;SDS011;6232;48.094;11.288;2024-01-06T00:46:41;8.50;;;5.20;;
12332;SDS011;6232;48.094;11.288;2024-01-06T00:49:27;8.03;;;5.33;;
12332;SDS011;6232;48.094;11.288;2024-01-06T00:52:13;6.43;;;5.70;;
12332;SDS011;6232;48.094;11.288;2024-01-06T00:54:58;10.83;;;5.37;;
12332;SDS011;6232;48.094;11.288;2024-01-06T00:57:44;6.43;;;4.60;;
12332;SDS011;6232;48.094;11.288;2024-01-06T01:00:29;7.63;;;5.00;;
12332;SDS011;6232;48.094;11.288;2024-01-06T01:03:15;6.03;;;4.30;;
12332;SDS011;6232;48.094;11.288;2024-01-06T01:06:00;5.43;;;4.93;;
12332;SDS011;6232;48.094;11.288;2024-01-06T01:08:46;6.47;;;4.50;;
12332;SDS011;6232;48.094;11.288;2024-01-06T01:11:31;5.37;;;4.80;;
12332;SDS011;6232;48.094;11.288;2024-01-06T01:14:17;4.97;;;4.43;;
12332;SDS011;6232;48.094;11.288;2024-01-06T01:17:04;6.83;;;4.50;;
12332;SDS011;6232;48.094;11.288;2024-01-06T01:19:49;5.80;;;4.40;;
12332;SDS011;6232;48.094;11.288;2024-01-06T01:22:35;6.37;;;3.73;;
12332;SDS011;6232;48.094;11.288;2024-01-06T01:25:20;7.60;;;4.83;;
12332;SDS011;6232;48.094;11.288;2024-01-06T01:28:06;10.00;;;4.17;;
12332;SDS011;6232;48.094;11.288;2024-01-06T01:30:51;4.80;;;4.30;;
12332;SDS011;6232;48.094;11.288;2024-01-06T01:33:37;4.57;;;4.17;;
12332;SDS011;6232;48.094;11.288;2024-01-06T01:36:22;6.57;;;4.50;;
12332;SDS011;6232;48.094;11.288;2024-01-06T01:39:08;5.90;;;4.90;;
12332;SDS011;6232;48.094;11.288;2024-01-06T01:41:54;5.00;;;3.97;;
12332;SDS011;6232;48.094;11.288;2024-01-06T01:44:39;7.80;;;5.20;;
12332;SDS011;6232;48.094;11.288;2024-01-06T01:47:25;6.33;;;4.73;;
12332;SDS011;6232;48.094;11.288;2024-01-06T01:50:11;5.60;;;5.10;;
12332;SDS011;6232;48.094;11.288;2024-01-06T01:52:57;15.80;;;6.30;;
12332;SDS011;6232;48.094;11.288;2024-01-06T01:55:43;6.67;;;5.10;;
12332;SDS011;6232;48.094;11.288;2024-01-06T01:58:29;6.03;;;5.20;;
12332;SDS011;6232;48.094;11.288;2024-01-06T02:01:14;9.63;;;4.47;;
12332;SDS011;6232;48.094;11.288;2024-01-06T02:04:00;13.77;;;4.67;;
12332;SDS011;6232;48.094;11.288;2024-01-06T02:06:46;5.30;;;4.53;;
12332;SDS011;6232;48.094;11.288;2024-01-06T02:09:31;7.97;;;5.50;;
12332;SDS011;6232;48.094;11.288;2024-01-06T02:12:17;4.13;;;3.73;;
12332;SDS011;6232;48.094;11.288;2024-01-06T02:15:02;5.17;;;4.60;;
12332;SDS011;6232;48.094;11.288;2024-01-06T02:17:48;3.70;;;3.40;;
12332;SDS011;6232;48.094;11.288;2024-01-06T02:20:34;5.33;;;3.77;;
12332;SDS011;6232;48.094;11.288;2024-01-06T02:23:19;6.97;;;5.27;;
12332;SDS011;6232;48.094;11.288;2024-01-06T02:26:05;5.60;;;4.70;;
12332;SDS011;6232;48.094;11.288;2024-01-06T02:28:50;6.10;;;4.07;;
12332;SDS011;6232;48.094;11.288;2024-01-06T02:31:36;9.93;;;4.87;;
12332;SDS011;6232;48.094;11.288;2024-01-06T02:34:21;6.37;;;3.97;;
12332;SDS011;6232;48.094;11.288;2024-01-06T02:37:07;7.70;;;4.50;;
12332;SDS011;6232;48.094;11.288;2024-01-06T02:39:53;3.40;;;3.10;;
12332;SDS011;6232;48.094;11.288;2024-01-06T02:42:38;4.00;;;3.70;;
12332;SDS011;6232;48.094;11.288;2024-01-06T02:45:24;2.77;;;2.53;;
12332;SDS011;6232;48.094;11.288;2024-01-06T02:48:09;2.73;;;2.53;;
12332;SDS011;6232;48.094;11.288;2024-01-06T02:50:55;2.80;;;2.60;;
12332;SDS011;6232;48.094;11.288;2024-01-06T02:53:40;2.60;;;2.40;;
12332;SDS011;6232;48.094;11.288;2024-01-06T02:56:26;2.77;;;2.57;;
12332;SDS011;6232;48.094;11.288;2024-01-06T02:59:11;5.90;;;2.40;;
12332;SDS011;6232;48.094;11.288;2024-01-06T03:01:57;3.20;;;2.17;;
12332;SDS011;6232;48.094;11.288;2024-01-06T03:04:42;1.70;;;1.60;;
12332;SDS011;6232;48.094;11.288;2024-01-06T03:07:28;1.60;;;1.50;;
12332;SDS011;6232;48.094;11.288;2024-01-06T03:10:14;1.63;;;1.53;;
12332;SDS011;6232;48.094;11.288;2024-01-06T03:12:59;1.30;;;1.30;;
12332;SDS011;6232;48.094;11.288;2024-01-06T03:15:45;1.67;;;1.57;;
12332;SDS011;6232;48.094;11.288;2024-01-06T03:18:31;1.63;;;1.53;;
12332;SDS011;6232;48.094;11.288;2024-01-06T03:21:17;2.53;;;1.67;;
12332;SDS011;6232;48.094;11.288;2024-01-06T03:24:03;1.67;;;1.57;;
12332;SDS011;6232;48.094;11.288;2024-01-06T03:26:49;1.67;;;1.57;;
12332;SDS011;6232;48.094;11.288;2024-01-06T03:29:35;1.70;;;1.60;;
12332;SDS011;6232;48.094;11.288;2024-01-06T03:32:21;1.30;;;1.30;;
12332;SDS011;6232;48.094;11.288;2024-01-06T03:35:06;1.87;;;1.77;;
12332;SDS011;6232;48.094;11.288;2024-01-06T03:37:52;1.43;;;1.33;;
12332;SDS011;6232;48.094;11.288;2024-01-06T03:40:37;1.67;;;1.57;;
12332;SDS011;6232;48.094;11.288;2024-01-06T03:43:23;1.37;;;1.37;;
12332;SDS011;6232;48.094;11.288;2024-01-06T03:46:08;1.40;;;1.30;;
12332;SDS011;6232;48.094;11.288;2024-01-06T03:48:54;1.40;;;1.40;;
12332;SDS011;6232;48.094;11.288;2024-01-06T03:51:39;1.60;;;1.50;;
12332;SDS011;6232;48.094;11.288;2024-01-06T03:54:25;1.60;;;1.50;;
12332;SDS011;6232;48.094;11.288;2024-01-06T03:57:10;1.70;;;1.60;;
12332;SDS011;6232;48.094;11.288;2024-01-06T03:59:57;1.50;;;1.40;;
12332;SDS011;6232;48.094;11.288;2024-01-06T04:02:42;1.33;;;1.33;;
12332;SDS011;6232;48.094;11.288;2024-01-06T04:05:28;1.50;;;1.50;;
12332;SDS011;6232;48.094;11.288;2024-01-06T04:08:13;2.10;;;1.57;;
12332;SDS011;6232;48.094;11.288;2024-01-06T04:10:59;1.13;;;1.13;;
12332;SDS011;6232;48.094;11.288;2024-01-06T04:13:44;1.40;;;1.40;;
12332;SDS011;6232;48.094;11.288;2024-01-06T04:16:30;1.43;;;1.20;;
12332;SDS011;6232;48.094;11.288;2024-01-06T04:19:15;1.27;;;1.27;;
12332;SDS011;6232;48.094;11.288;2024-01-06T04:22:01;1.27;;;1.17;;
12332;SDS011;6232;48.094;11.288;2024-01-06T04:24:46;1.00;;;1.00;;
12332;SDS011;6232;48.094;11.288;2024-01-06T04:27:32;1.07;;;1.07;;
12332;SDS011;6232;48.094;11.288;2024-01-06T04:30:19;1.10;;;1.10;;
12332;SDS011;6232;48.094;11.288;2024-01-06T04:33:05;1.93;;;1.83;;
12332;SDS011;6232;48.094;11.288;2024-01-06T04:35:52;1.00;;;1.00;;
12332;SDS011;6232;48.094;11.288;2024-01-06T04:38:38;1.53;;;1.43;;
12332;SDS011;6232;48.094;11.288;2024-01-06T04:41:25;1.20;;;1.20;;
12332;SDS011;6232;48.094;11.288;2024-01-06T04:44:10;1.30;;;1.30;;
12332;SDS011;6232;48.094;11.288;2024-01-06T04:46:56;1.20;;;1.20;;
12332;SDS011;6232;48.094;11.288;2024-01-06T04:49:41;1.10;;;1.10;;
12332;SDS011;6232;48.094;11.288;2024-01-06T04:52:27;1.13;;;1.10;;
12332;SDS011;6232;48.094;11.288;2024-01-06T04:55:12;1.43;;;1.33;;
12332;SDS011;6232;48.094;11.288;2024-01-06T04:57:58;1.00;;;1.00;;
12332;SDS011;6232;48.094;11.288;2024-01-06T05:00:43;1.00;;;1.00;;
12332;SDS011;6232;48.094;11.288;2024-01-06T05:03:29;1.50;;;1.40;;
12332;SDS011;6232;48.094;11.288;2024-01-06T05:06:14;1.50;;;1.50;;
12332;SDS011;6232;48.094;11.288;2024-01-06T05:09:00;1.17;;;1.17;;
12332;SDS011;6232;48.094;11.288;2024-01-06T05:11:46;1.40;;;1.40;;
12332;SDS011;6232;48.094;11.288;2024-01-06T05:14:31;1.30;;;1.30;;
12332;SDS011;6232;48.094;11.288;2024-01-06T05:17:17;1.30;;;1.30;;
12332;SDS011;6232;48.094;11.288;2024-01-06T05:20:02;1.53;;;1.53;;
12332;SDS011;6232;48.094;11.288;2024-01-06T05:22:49;1.30;;;1.20;;
12332;SDS011;6232;48.094;11.288;2024-01-06T05:25:34;1.47;;;1.47;;
12332;SDS011;6232;48.094;11.288;2024-01-06T05:28:20;1.30;;;1.30;;
12332;SDS011;6232;48.094;11.288;2024-01-06T05:31:05;1.23;;;1.23;;
12332;SDS011;6232;48.094;11.288;2024-01-06T05:33:51;1.17;;;1.17;;
12332;SDS011;6232;48.094;11.288;2024-01-06T05:36:37;1.40;;;1.40;;
12332;SDS011;6232;48.094;11.288;2024-01-06T05:39:22;1.27;;;1.17;;
12332;SDS011;6232;48.094;11.288;2024-01-06T05:42:09;1.03;;;1.03;;
12332;SDS011;6232;48.094;11.288;2024-01-06T05:44:55;1.23;;;1.23;;
12332;SDS011;6232;48.094;11.288;2024-01-06T05:47:41;1.00;;;1.00;;
12332;SDS011;6232;48.094;11.288;2024-01-06T05:50:26;1.30;;;1.20;;
12332;SDS011;6232;48.094;11.288;2024-01-06T05:53:12;1.20;;;1.20;;
12332;SDS011;6232;48.094;11.288;2024-01-06T05:55:59;1.27;;;1.27;;
12332;SDS011;6232;48.094;11.288;2024-01-06T05:58:45;1.50;;;1.50;;
12332;SDS011;6232;48.094;11.288;2024-01-06T06:01:30;1.17;;;1.17;;
12332;SDS011;6232;48.094;11.288;2024-01-06T06:04:16;1.37;;;1.37;;
12332;SDS011;6232;48.094;11.288;2024-01-06T06:07:01;1.17;;;1.17;;
12332;SDS011;6232;48.094;11.288;2024-01-06T06:09:47;1.10;;;1.10;;
12332;SDS011;6232;48.094;11.288;2024-01-06T06:12:33;1.13;;;1.13;;
12332;SDS011;6232;48.094;11.288;2024-01-06T06:15:18;1.10;;;1.10;;
12332;SDS011;6232;48.094;11.288;2024-01-06T06:18:04;1.43;;;1.37;;
12332;SDS011;6232;48.094;11.288;2024-01-06T06:20:50;1.30;;;1.30;;
12332;SDS011;6232;48.094;11.288;2024-01-06T06:23:35;1.10;;;1.10;;
12332;SDS011;6232;48.094;11.288;2024-01-06T06:26:21;1.87;;;1.77;;
12332;SDS011;6232;48.094;11.288;2024-01-06T06:29:06;1.37;;;1.27;;
12332;SDS011;6232;48.094;11.288;2024-01-06T06:31:52;4.67;;;1.90;;
12332;SDS011;6232;48.094;11.288;2024-01-06T06:34:37;2.37;;;2.00;;
12332;SDS011;6232;48.094;11.288;2024-01-06T06:37:23;2.33;;;2.13;;
12332;SDS011;6232;48.094;11.288;2024-01-06T06:40:09;5.47;;;2.47;;
12332;SDS011;6232;48.094;11.288;2024-01-06T06:42:54;1.93;;;1.83;;
12332;SDS011;6232;48.094;11.288;2024-01-06T06:45:40;1.90;;;1.80;;
12332;SDS011;6232;48.094;11.288;2024-01-06T06:48:25;2.57;;;2.37;;
12332;SDS011;6232;48.094;11.288;2024-01-06T06:51:11;4.03;;;3.43;;
12332;SDS011;6232;48.094;11.288;2024-01-06T06:53:56;11.63;;;6.97;;
12332;SDS011;6232;48.094;11.288;2024-01-06T06:56:42;12.00;;;5.87;;
12332;SDS011;6232;48.094;11.288;2024-01-06T06:59:28;12.37;;;4.97;;
12332;SDS011;6232;48.094;11.288;2024-01-06T07:02:14;3.37;;;3.00;;
12332;SDS011;6232;48.094;11.288;2024-01-06T07:04:59;5.70;;;2.73;;
12332;SDS011;6232;48.094;11.288;2024-01-06T07:07:45;3.20;;;3.00;;
12332;SDS011;6232;48.094;11.288;2024-01-06T07:10:31;2.60;;;2.40;;
12332;SDS011;6232;48.094;11.288;2024-01-06T07:13:17;2.60;;;2.40;;
12332;SDS011;6232;48.094;11.288;2024-01-06T07:16:03;3.40;;;2.83;;
12332;SDS011;6232;48.094;11.288;2024-01-06T07:18:48;3.73;;;3.37;;
12332;SDS011;6232;48.094;11.288;2024-01-06T07:21:34;3.90;;;3.40;;
12332;SDS011;6232;48.094;11.288;2024-01-06T07:24:19;3.20;;;3.00;;
12332;SDS011;6232;48.094;11.288;2024-01-06T07:27:05;4.20;;;3.10;;
12332;SDS011;6232;48.094;11.288;2024-01-06T07:29:50;6.03;;;4.33;;
12332;SDS011;6232;48.094;11.288;2024-01-06T07:32:36;4.57;;;3.53;;
12332;SDS011;6232;48.094;11.288;2024-01-06T07:35:21;3.13;;;2.70;;
12332;SDS011;6232;48.094;11.288;2024-01-06T07:38:07;2.63;;;2.43;;
12332;SDS011;6232;48.094;11.288;2024-01-06T07:40:52;4.77;;;2.40;;
12332;SDS011;6232;48.094;11.288;2024-01-06T07:43:39;12.63;;;3.30;;
12332;SDS011;6232;48.094;11.288;2024-01-06T07:46:25;5.00;;;3.80;;
12332;SDS011;6232;48.094;11.288;2024-01-06T07:49:11;3.10;;;2.83;;
12332;SDS011;6232;48.094;11.288;2024-01-06T07:51:56;3.47;;;2.50;;
12332;SDS011;6232;48.094;11.288;2024-01-06T07:54:42;3.27;;;2.97;;
12332;SDS011;6232;48.094;11.288;2024-01-06T07:57:27;2.30;;;2.20;;
12332;SDS011;6232;48.094;11.288;2024-01-06T08:00:13;6.10;;;3.30;;
12332;SDS011;6232;48.094;11.288;2024-01-06T08:03:01;4.73;;;2.87;;
12332;SDS011;6232;48.094;11.288;2024-01-06T08:05:48;2.77;;;2.57;;
12332;SDS011;6232;48.094;11.288;2024-01-06T08:08:35;2.77;;;2.53;;
12332;SDS011;6232;48.094;11.288;2024-01-06T08:11:21;3.10;;;2.70;;
12332;SDS011;6232;48.094;11.288;2024-01-06T08:14:06;4.97;;;3.50;;
12332;SDS011;6232;48.094;11.288;2024-01-06T08:16:52;5.77;;;3.37;;
12332;SDS011;6232;48.094;11.288;2024-01-06T08:19:37;3.63;;;3.33;;
12332;SDS011;6232;48.094;11.288;2024-01-06T08:22:23;5.13;;;3.37;;
12332;SDS011;6232;48.094;11.288;2024-01-06T08:25:09;10.80;;;3.87;;
12332;SDS011;6232;48.094;11.288;2024-01-06T08:27:56;3.63;;;3.30;;
12332;SDS011;6232;48.094;11.288;2024-01-06T08:30:41;4.20;;;3.60;;
12332;SDS011;6232;48.094;11.288;2024-01-06T08:33:28;3.97;;;3.03;;
12332;SDS011;6232;48.094;11.288;2024-01-06T08:36:13;6.60;;;3.30;;
12332;SDS011;6232;48.094;11.288;2024-01-06T08:38:59;13.00;;;3.87;;
12332;SDS011;6232;48.094;11.288;2024-01-06T08:41:44;4.50;;;3.20;;
12332;SDS011;6232;48.094;11.288;2024-01-06T08:44:30;3.10;;;2.80;;
12332;SDS011;6232;48.094;11.288;2024-01-06T08:47:16;3.50;;;3.20;;
12332;SDS011;6232;48.094;11.288;2024-01-06T08:50:01;4.00;;;3.50;;
12332;SDS011;6232;48.094;11.288;2024-01-06T08:52:47;5.23;;;3.07;;
12332;SDS011;6232;48.094;11.288;2024-01-06T08:55:32;6.07;;;3.43;;
12332;SDS011;6232;48.094;11.288;2024-01-06T08:58:18;5.07;;;3.40;;
12332;SDS011;6232;48.094;11.288;2024-01-06T09:01:03;3.30;;;2.57;;
12332;SDS011;6232;48.094;11.288;2024-01-06T09:03:49;3.50;;;3.10;;
12332;SDS011;6232;48.094;11.288;2024-01-06T09:06:35;6.00;;;4.03;;
12332;SDS011;6232;48.094;11.288;2024-01-06T09:09:20;9.67;;;3.50;;
12332;SDS011;6232;48.094;11.288;2024-01-06T09:12:06;6.80;;;4.23;;
12332;SDS011;6232;48.094;11.288;2024-01-06T09:14:52;5.70;;;3.00;;
12332;SDS011;6232;48.094;11.288;2024-01-06T09:17:37;5.67;;;3.30;;
12332;SDS011;6232;48.094;11.288;2024-01-06T09:20:23;12.63;;;2.90;;
12332;SDS011;6232;48.094;11.288;2024-01-06T09:23:08;3.83;;;3.50;;
12332;SDS011;6232;48.094;11.288;2024-01-06T09:25:55;3.23;;;2.97;;
12332;SDS011;6232;48.094;11.288;2024-01-06T09:28:41;2.73;;;2.30;;
12332;SDS011;6232;48.094;11.288;2024-01-06T09:31:27;5.40;;;2.63;;
12332;SDS011;6232;48.094;11.288;2024-01-06T09:34:13;4.47;;;2.97;;
12332;SDS011;6232;48.094;11.288;2024-01-06T09:36:58;6.70;;;2.70;;
12332;SDS011;6232;48.094;11.288;2024-01-06T09:39:44;6.67;;;3.40;;
12332;SDS011;6232;48.094;11.288;2024-01-06T09:42:30;6.00;;;3.00;;
12332;SDS011;6232;48.094;11.288;2024-01-06T09:45:15;3.27;;;3.07;;
12332;SDS011;6232;48.094;11.288;2024-01-06T09:48:03;5.63;;;3.30;;
12332;SDS011;6232;48.094;11.288;2024-01-06T09:50:54;3.37;;;2.90;;
12332;SDS011;6232;48.094;11.288;2024-01-06T09:53:43;6.07;;;4.20;;
12332;SDS011;6232;48.094;11.288;2024-01-06T09:56:32;7.40;;;3.90;;
12332;SDS011;6232;48.094;11.288;2024-01-06T09:59:18;3.30;;;3.00;;
12332;SDS011;6232;48.094;11.288;2024-01-06T10:02:04;5.70;;;4.20;;
12332;SDS011;6232;48.094;11.288;2024-01-06T10:04:50;9.83;;;3.90;;
12332;SDS011;6232;48.094;11.288;2024-01-06T10:07:36;6.13;;;4.03;;
12332;SDS011;6232;48.094;11.288;2024-01-06T10:10:22;8.20;;;4.00;;
12332;SDS011;6232;48.094;11.288;2024-01-06T10:13:07;5.60;;;3.90;;
12332;SDS011;6232;48.094;11.288;2024-01-06T10:15:53;5.37;;;4.40;;
12332;SDS011;6232;48.094;11.288;2024-01-06T10:18:39;4.70;;;4.00;;
12332;SDS011;6232;48.094;11.288;2024-01-06T10:21:25;5.80;;;4.53;;
12332;SDS011;6232;48.094;11.288;2024-01-06T10:24:10;8.57;;;4.70;;
12332;SDS011;6232;48.094;11.288;2024-01-06T10:26:56;4.40;;;3.73;;
12332;SDS011;6232;48.094;11.288;2024-01-06T10:29:41;4.93;;;4.50;;
12332;SDS011;6232;48.094;11.288;2024-01-06T10:32:31;10.10;;;4.27;;
12332;SDS011;6232;48.094;11.288;2024-01-06T10:35:16;5.10;;;4.47;;
12332;SDS011;6232;48.094;11.288;2024-01-06T10:38:03;7.37;;;4.90;;
12332;SDS011;6232;48.094;11.288;2024-01-06T10:41:04;6.70;;;5.53;;
12332;SDS011;6232;48.094;11.288;2024-01-06T10:43:52;6.73;;;5.30;;
12332;SDS011;6232;48.094;11.288;2024-01-06T10:46:39;9.53;;;5.60;;
12332;SDS011;6232;48.094;11.288;2024-01-06T10:49:25;14.20;;;5.23;;
12332;SDS011;6232;48.094;11.288;2024-01-06T10:52:12;8.80;;;6.27;;
12332;SDS011;6232;48.094;11.288;2024-01-06T10:54:57;8.17;;;6.43;;
12332;SDS011;6232;48.094;11.288;2024-01-06T10:57:43;8.87;;;6.37;;
12332;SDS011;6232;48.094;11.288;2024-01-06T11:00:30;8.50;;;5.90;;
12332;SDS011;6232;48.094;11.288;2024-01-06T11:03:16;6.80;;;5.93;;
12332;SDS011;6232;48.094;11.288;2024-01-06T11:06:03;8.83;;;5.33;;
12332;SDS011;6232;48.094;11.288;2024-01-06T11:11:35;8.70;;;6.30;;
12332;SDS011;6232;48.094;11.288;2024-01-06T11:14:24;5.63;;;4.90;;
12332;SDS011;6232;48.094;11.288;2024-01-06T11:17:10;5.60;;;5.10;;
12332;SDS011;6232;48.094;11.288;2024-01-06T11:20:04;7.20;;;5.50;;
12332;SDS011;6232;48.094;11.288;2024-01-06T11:22:50;6.60;;;4.60;;
12332;SDS011;6232;48.094;11.288;2024-01-06T11:25:36;6.10;;;5.07;;
12332;SDS011;6232;48.094;11.288;2024-01-06T11:28:22;7.47;;;5.13;;
12332;SDS011;6232;48.094;11.288;2024-01-06T11:31:08;7.00;;;4.13;;
12332;SDS011;6232;48.094;11.288;2024-01-06T11:33:54;7.60;;;4.27;;
12332;SDS011;6232;48.094;11.288;2024-01-06T11:36:39;6.13;;;4.97;;
12332;SDS011;6232;48.094;11.288;2024-01-06T11:39:35;5.83;;;5.07;;
12332;SDS011;6232;48.094;11.288;2024-01-06T11:42:21;8.03;;;4.63;;
12332;SDS011;6232;48.094;11.288;2024-01-06T11:45:16;9.13;;;4.70;;
12332;SDS011;6232;48.094;11.288;2024-01-06T11:48:03;6.33;;;4.83;;
12332;SDS011;6232;48.094;11.288;2024-01-06T11:50:49;7.43;;;4.30;;
12332;SDS011;6232;48.094;11.288;2024-01-06T11:53:35;8.37;;;4.47;;
12332;SDS011;6232;48.094;11.288;2024-01-06T11:56:20;5.70;;;4.50;;
12332;SDS011;6232;48.094;11.288;2024-01-06T11:59:07;5.90;;;4.90;;
12332;SDS011;6232;48.094;11.288;2024-01-06T12:01:53;5.30;;;4.80;;
12332;SDS011;6232;48.094;11.288;2024-01-06T12:04:39;6.73;;;4.23;;
12332;SDS011;6232;48.094;11.288;2024-01-06T12:07:26;4.97;;;4.47;;
12332;SDS011;6232;48.094;11.288;2024-01-06T12:10:11;9.27;;;5.10;;
12332;SDS011;6232;48.094;11.288;2024-01-06T12:15:45;4.43;;;4.03;;
12332;SDS011;6232;48.094;11.288;2024-01-06T12:18:30;10.57;;;5.40;;
12332;SDS011;6232;48.094;11.288;2024-01-06T12:21:16;8.23;;;4.53;;
12332;SDS011;6232;48.094;11.288;2024-01-06T12:27:16;9.30;;;5.27;;
12332;SDS011;6232;48.094;11.288;2024-01-06T12:30:02;9.53;;;5.87;;
12332;SDS011;6232;48.094;11.288;2024-01-06T12:32:48;12.20;;;5.00;;
12332;SDS011;6232;48.094;11.288;2024-01-06T12:35:34;10.80;;;4.80;;
12332;SDS011;6232;48.094;11.288;2024-01-06T12:38:20;6.97;;;4.97;;
12332;SDS011;6232;48.094;11.288;2024-01-06T12:41:06;7.67;;;5.30;;
12332;SDS011;6232;48.094;11.288;2024-01-06T12:43:51;11.23;;;5.03;;
12332;SDS011;6232;48.094;11.288;2024-01-06T12:46:37;7.77;;;4.60;;
12332;SDS011;6232;48.094;11.288;2024-01-06T12:49:22;8.63;;;5.43;;
12332;SDS011;6232;48.094;11.288;2024-01-06T12:52:08;6.40;;;4.80;;
12332;SDS011;6232;48.094;11.288;2024-01-06T12:54:53;6.17;;;4.70;;
12332;SDS011;6232;48.094;11.288;2024-01-06T12:57:39;3.97;;;3.57;;
12332;SDS011;6232;48.094;11.288;2024-01-06T13:00:25;5.97;;;4.00;;
12332;SDS011;6232;48.094;11.288;2024-01-06T13:03:11;6.70;;;4.83;;
12332;SDS011;6232;48.094;11.288;2024-01-06T13:05:57;6.93;;;4.80;;
12332;SDS011;6232;48.094;11.288;2024-01-06T13:08:42;12.00;;;4.00;;
12332;SDS011;6232;48.094;11.288;2024-01-06T13:11:28;4.17;;;3.77;;
12332;SDS011;6232;48.094;11.288;2024-01-06T13:14:15;3.93;;;3.20;;
12332;SDS011;6232;48.094;11.288;2024-01-06T13:17:00;5.53;;;3.77;;
12332;SDS011;6232;48.094;11.288;2024-01-06T13:19:46;3.03;;;2.83;;
12332;SDS011;6232;48.094;11.288;2024-01-06T13:22:31;3.27;;;3.00;;
12332;SDS011;6232;48.094;11.288;2024-01-06T13:25:17;4.80;;;4.33;;
12332;SDS011;6232;48.094;11.288;2024-01-06T13:28:05;11.63;;;3.80;;
12332;SDS011;6232;48.094;11.288;2024-01-06T13:30:51;6.53;;;3.97;;
12332;SDS011;6232;48.094;11.288;2024-01-06T13:33:37;5.30;;;4.30;;
12332;SDS011;6232;48.094;11.288;2024-01-06T13:36:22;6.53;;;4.60;;
12332;SDS011;6232;48.094;11.288;2024-01-06T13:39:08;6.10;;;3.40;;
12332;SDS011;6232;48.094;11.288;2024-01-06T13:41:53;4.53;;;4.13;;
12332;SDS011;6232;48.094;11.288;2024-01-06T13:44:39;5.77;;;4.03;;
12332;SDS011;6232;48.094;11.288;2024-01-06T13:47:25;4.80;;;3.83;;
12332;SDS011;6232;48.094;11.288;2024-01-06T13:50:15;4.20;;;3.83;;
12332;SDS011;6232;48.094;11.288;2024-01-06T13:53:01;8.57;;;4.47;;
12332;SDS011;6232;48.094;11.288;2024-01-06T13:55:48;4.03;;;3.73;;
12332;SDS011;6232;48.094;11.288;2024-01-06T13:58:33;3.73;;;3.00;;
12332;SDS011;6232;48.094;11.288;2024-01-06T14:01:21;4.20;;;3.80;;
12332;SDS011;6232;48.094;11.288;2024-01-06T14:04:09;4.53;;;4.03;;
12332;SDS011;6232;48.094;11.288;2024-01-06T14:06:54;3.80;;;3.40;;
12332;SDS011;6232;48.094;11.288;2024-01-06T14:09:43;3.97;;;3.67;;
12332;SDS011;6232;48.094;11.288;2024-01-06T14:12:29;4.53;;;4.13;;
12332;SDS011;6232;48.094;11.288;2024-01-06T14:15:15;4.73;;;3.90;;
12332;SDS011;6232;48.094;11.288;2024-01-06T14:18:00;3.60;;;3.30;;
12332;SDS011;6232;48.094;11.288;2024-01-06T14:20:46;4.13;;;3.73;;
12332;SDS011;6232;48.094;11.288;2024-01-06T14:23:33;7.43;;;4.03;;
12332;SDS011;6232;48.094;11.288;2024-01-06T14:26:19;4.57;;;4.13;;
12332;SDS011;6232;48.094;11.288;2024-01-06T14:29:09;4.13;;;3.80;;
12332;SDS011;6232;48.094;11.288;2024-01-06T14:31:54;4.20;;;3.80;;
12332;SDS011;6232;48.094;11.288;2024-01-06T14:34:40;5.77;;;4.00;;
12332;SDS011;6232;48.094;11.288;2024-01-06T14:37:25;4.77;;;4.37;;
12332;SDS011;6232;48.094;11.288;2024-01-06T14:40:11;5.60;;;4.53;;
12332;SDS011;6232;48.094;11.288;2024-01-06T14:42:57;3.83;;;3.63;;
12332;SDS011;6232;48.094;11.288;2024-01-06T14:45:43;4.70;;;4.30;;
12332;SDS011;6232;48.094;11.288;2024-01-06T14:48:29;3.70;;;3.33;;
12332;SDS011;6232;48.094;11.288;2024-01-06T14:51:14;4.57;;;4.17;;
12332;SDS011;6232;48.094;11.288;2024-01-06T14:54:00;4.90;;;4.10;;
12332;SDS011;6232;48.094;11.288;2024-01-06T14:56:45;4.17;;;3.73;;
12332;SDS011;6232;48.094;11.288;2024-01-06T14:59:32;5.00;;;4.47;;
12332;SDS011;6232;48.094;11.288;2024-01-06T15:02:17;5.57;;;4.87;;
12332;SDS011;6232;48.094;11.288;2024-01-06T15:05:03;5.07;;;3.93;;
12332;SDS011;6232;48.094;11.288;2024-01-06T15:07:49;5.57;;;4.27;;
12332;SDS011;6232;48.094;11.288;2024-01-06T15:10:35;5.33;;;4.33;;
12332;SDS011;6232;48.094;11.288;2024-01-06T15:13:20;5.20;;;4.70;;
12332;SDS011;6232;48.094;11.288;2024-01-06T15:16:06;4.97;;;4.33;;
12332;SDS011;6232;48.094;11.288;2024-01-06T15:18:51;4.70;;;4.17;;
12332;SDS011;6232;48.094;11.288;2024-01-06T15:21:37;8.37;;;5.60;;
12332;SDS011;6232;48.094;11.288;2024-01-06T15:24:23;4.30;;;3.90;;
12332;SDS011;6232;48.094;11.288;2024-01-06T15:27:11;5.10;;;4.17;;
12332;SDS011;6232;48.094;11.288;2024-01-06T15:29:57;6.77;;;5.30;;
12332;SDS011;6232;48.094;11.288;2024-01-06T15:32:42;7.70;;;4.57;;
12332;SDS011;6232;48.094;11.288;2024-01-06T15:35:28;7.07;;;4.93;;
12332;SDS011;6232;48.094;11.288;2024-01-06T15:38:13;6.20;;;4.83;;
12332;SDS011;6232;48.094;11.288;2024-01-06T15:40:59;7.80;;;3.80;;
12332;SDS011;6232;48.094;11.288;2024-01-06T15:43:44;4.40;;;4.00;;
12332;SDS011;6232;48.094;11.288;2024-01-06T15:46:30;3.73;;;3.40;;
12332;SDS011;6232;48.094;11.288;2024-01-06T15:49:16;5.77;;;4.43;;
12332;SDS011;6232;48.094;11.288;2024-01-06T15:52:02;5.40;;;4.40;;
12332;SDS011;6232;48.094;11.288;2024-01-06T15:54:48;5.67;;;3.23;;
12332;SDS011;6232;48.094;11.288;2024-01-06T15:57:34;4.43;;;4.00;;
12332;SDS011;6232;48.094;11.288;2024-01-06T16:00:20;5.83;;;3.97;;
12332;SDS011;6232;48.094;11.288;2024-01-06T16:03:06;5.60;;;4.37;;
12332;SDS011;6232;48.094;11.288;2024-01-06T16:05:52;6.20;;;4.17;;
12332;SDS011;6232;48.094;11.288;2024-01-06T16:08:38;4.30;;;3.90;;
12332;SDS011;6232;48.094;11.288;2024-01-06T16:11:23;7.00;;;5.17;;
12332;SDS011;6232;48.094;11.288;2024-01-06T16:14:09;5.33;;;4.47;;
12332;SDS011;6232;48.094;11.288;2024-01-06T16:16:54;7.00;;;4.63;;
12332;SDS011;6232;48.094;11.288;2024-01-06T16:19:40;5.00;;;4.60;;
12332;SDS011;6232;48.094;11.288;2024-01-06T16:22:27;5.00;;;4.17;;
12332;SDS011;6232;48.094;11.288;2024-01-06T16:25:12;6.40;;;4.23;;
12332;SDS011;6232;48.094;11.288;2024-01-06T16:27:58;7.60;;;4.20;;
12332;SDS011;6232;48.094;11.288;2024-01-06T16:30:44;4.50;;;4.03;;
12332;SDS011;6232;48.094;11.288;2024-01-06T16:33:29;8.40;;;5.87;;
12332;SDS011;6232;48.094;11.288;2024-01-06T16:36:15;5.60;;;4.90;;
12332;SDS011;6232;48.094;11.288;2024-01-06T16:39:01;8.50;;;5.60;;
12332;SDS011;6232;48.094;11.288;2024-01-06T16:41:46;7.73;;;5.27;;
12332;SDS011;6232;48.094;11.288;2024-01-06T16:44:32;7.00;;;5.10;;
12332;SDS011;6232;48.094;11.288;2024-01-06T16:47:18;9.90;;;6.30;;
12332;SDS011;6232;48.094;11.288;2024-01-06T16:50:03;7.93;;;6.67;;